createdAt,value
2018-01-12T00:01:17.166Z,16.00
2018-01-12T00:03:45.379Z,16.97
2018-01-12T00:06:13.007Z,15.17
2018-01-12T00:08:40.601Z,16.00
2018-01-12T00:11:08.161Z,14.23
2018-01-12T00:13:35.741Z,15.07
2018-01-12T00:16:03.361Z,16.60
2018-01-12T00:18:30.965Z,16.10
2018-01-12T00:20:58.576Z,16.13
2018-01-12T00:23:26.149Z,16.80
2018-01-12T00:25:53.693Z,16.23
2018-01-12T00:28:21.661Z,17.10
2018-01-12T00:30:49.261Z,17.47
2018-01-12T00:33:16.856Z,15.93
2018-01-12T00:35:44.453Z,16.13
2018-01-12T00:38:12.014Z,16.13
2018-01-12T00:40:39.580Z,15.23
2018-01-12T00:43:07.142Z,17.10
2018-01-12T00:45:34.718Z,15.73
2018-01-12T00:48:02.277Z,15.93
2018-01-12T00:50:29.861Z,15.70
2018-01-12T00:52:57.411Z,16.87
2018-01-12T00:55:24.977Z,16.57
2018-01-12T00:57:52.571Z,15.77
2018-01-12T01:00:20.146Z,16.60
2018-01-12T01:02:54.654Z,16.57
2018-01-12T01:05:22.255Z,16.40
2018-01-12T01:07:49.863Z,17.07
2018-01-12T01:10:17.494Z,16.77
2018-01-12T01:12:45.055Z,16.03
2018-01-12T01:15:12.631Z,17.93
2018-01-12T01:17:40.599Z,16.23
2018-01-12T01:20:08.192Z,16.80
2018-01-12T01:22:35.755Z,17.80
2018-01-12T01:25:03.358Z,18.23
2018-01-12T01:27:30.951Z,17.00
2018-01-12T01:29:58.536Z,16.70
2018-01-12T01:32:26.139Z,16.60
2018-01-12T01:34:53.736Z,15.87
2018-01-12T01:37:21.313Z,17.23
2018-01-12T01:39:48.960Z,14.90
2018-01-12T01:42:16.533Z,15.50
2018-01-12T01:44:44.073Z,15.90
2018-01-12T01:47:11.667Z,14.83
2018-01-12T01:49:39.206Z,15.33
2018-01-12T01:52:06.779Z,16.63
2018-01-12T01:54:34.329Z,15.53
2018-01-12T01:57:01.923Z,17.17
2018-01-12T01:59:29.466Z,16.07
2018-01-12T02:01:57.061Z,16.37
2018-01-12T02:04:24.644Z,16.83
2018-01-12T02:06:52.222Z,16.43
2018-01-12T02:09:19.843Z,17.27
2018-01-12T02:11:47.443Z,16.83
2018-01-12T02:14:15.024Z,15.47
2018-01-12T02:16:43.003Z,15.77
2018-01-12T02:19:10.558Z,16.07
2018-01-12T02:21:38.211Z,14.90
2018-01-12T02:24:05.781Z,16.83
2018-01-12T02:26:33.367Z,15.60
2018-01-12T02:29:00.943Z,17.37
2018-01-12T02:31:28.560Z,15.67
2018-01-12T02:33:56.115Z,15.93
2018-01-12T02:36:23.725Z,16.53
2018-01-12T02:38:51.777Z,16.97
2018-01-12T02:41:19.424Z,16.43
2018-01-12T02:43:47.425Z,16.37
2018-01-12T02:46:15.018Z,17.13
2018-01-12T02:48:42.587Z,16.03
2018-01-12T02:51:10.167Z,16.67
2018-01-12T02:53:37.754Z,15.37
2018-01-12T02:56:05.315Z,15.47
2018-01-12T02:58:32.888Z,17.03
2018-01-12T03:01:00.455Z,17.73
2018-01-12T03:03:28.051Z,17.50
2018-01-12T03:05:56.008Z,15.47
2018-01-12T03:08:23.932Z,15.57
2018-01-12T03:10:51.496Z,15.10
2018-01-12T03:13:19.115Z,16.20
2018-01-12T03:15:46.724Z,15.67
2018-01-12T03:18:14.347Z,16.37
2018-01-12T03:20:41.911Z,16.60
2018-01-12T03:23:09.519Z,14.07
2018-01-12T03:25:37.127Z,15.57
2018-01-12T03:28:04.745Z,16.43
2018-01-12T03:30:32.324Z,16.00
2018-01-12T03:32:59.972Z,14.33
2018-01-12T03:35:27.919Z,13.50
2018-01-12T03:37:55.566Z,15.97
2018-01-12T03:40:23.154Z,14.50
2018-01-12T03:42:50.742Z,14.50
2018-01-12T03:45:18.300Z,15.87
2018-01-12T03:47:45.904Z,13.80
2018-01-12T03:50:13.723Z,14.63
2018-01-12T03:52:41.335Z,13.83
2018-01-12T03:55:08.891Z,14.37
2018-01-12T03:57:37.427Z,13.43
2018-01-12T04:00:04.986Z,13.83
2018-01-12T04:02:32.580Z,14.13
2018-01-12T04:05:00.127Z,14.23
2018-01-12T04:07:27.719Z,15.50
2018-01-12T04:09:55.307Z,13.77
2018-01-12T04:12:23.083Z,13.10
2018-01-12T04:14:50.681Z,14.63
2018-01-12T04:17:18.250Z,14.30
2018-01-12T04:19:45.836Z,13.87
2018-01-12T04:22:13.396Z,14.33
2018-01-12T04:24:41.024Z,13.07
2018-01-12T04:27:08.615Z,13.20
2018-01-12T04:29:36.724Z,13.10
2018-01-12T04:32:04.353Z,13.10
2018-01-12T04:34:31.954Z,13.77
2018-01-12T04:36:59.532Z,13.07
2018-01-12T04:39:27.112Z,13.73
2018-01-12T04:41:55.071Z,13.70
2018-01-12T04:44:22.716Z,12.53
2018-01-12T04:46:50.292Z,13.07
2018-01-12T04:49:17.887Z,11.83
2018-01-12T04:51:45.460Z,13.73
2018-01-12T04:54:13.054Z,12.30
2018-01-12T04:56:40.644Z,13.50
2018-01-12T04:59:08.233Z,13.13
2018-01-12T05:01:35.832Z,12.67
2018-01-12T05:04:03.438Z,11.97
2018-01-12T05:06:31.012Z,13.60
2018-01-12T05:08:58.608Z,12.30
2018-01-12T05:11:26.229Z,13.70
2018-01-12T05:13:53.820Z,13.07
2018-01-12T05:16:21.387Z,13.47
2018-01-12T05:18:48.973Z,13.50
2018-01-12T05:21:16.572Z,13.13
2018-01-12T05:23:44.181Z,12.50
2018-01-12T05:26:12.162Z,13.87
2018-01-12T05:28:40.097Z,12.67
2018-01-12T05:31:07.677Z,13.80
2018-01-12T05:33:35.403Z,13.50
2018-01-12T05:36:03.064Z,13.33
2018-01-12T05:38:30.671Z,11.60
2018-01-12T05:40:59.124Z,12.47
2018-01-12T05:43:26.710Z,13.37
2018-01-12T05:45:54.299Z,11.97
2018-01-12T05:48:21.895Z,13.03
2018-01-12T05:50:49.499Z,12.73
2018-01-12T05:53:17.060Z,10.43
2018-01-12T05:55:44.655Z,12.40
2018-01-12T05:58:12.230Z,13.47
2018-01-12T06:00:39.811Z,12.53
2018-01-12T06:03:19.104Z,14.67
2018-01-12T06:05:58.420Z,14.37
2018-01-12T06:08:27.000Z,15.47
2018-01-12T06:10:54.579Z,14.27
2018-01-12T06:13:22.136Z,14.40
2018-01-12T06:15:49.759Z,14.20
2018-01-12T06:18:17.360Z,14.33
2018-01-12T06:20:44.939Z,14.20
2018-01-12T06:23:12.543Z,13.53
2018-01-12T06:25:40.144Z,14.30
2018-01-12T06:28:07.722Z,14.57
2018-01-12T06:30:35.337Z,16.30
2018-01-12T06:33:02.904Z,14.57
2018-01-12T06:35:30.509Z,13.83
2018-01-12T06:37:58.083Z,14.70
2018-01-12T06:40:25.679Z,14.37
2018-01-12T06:42:53.266Z,15.33
2018-01-12T06:45:21.392Z,14.20
2018-01-12T06:47:49.064Z,15.37
2018-01-12T06:50:16.610Z,13.23
2018-01-12T06:52:44.298Z,12.87
2018-01-12T06:55:11.888Z,14.17
2018-01-12T06:57:39.515Z,12.83
2018-01-12T07:00:07.142Z,14.07
2018-01-12T07:02:34.748Z,16.67
2018-01-12T07:05:02.327Z,16.10
2018-01-12T07:07:29.911Z,14.63
2018-01-12T07:09:57.454Z,16.43
2018-01-12T07:12:25.064Z,14.33
2018-01-12T07:14:52.628Z,13.53
2018-01-12T07:17:20.216Z,14.10
2018-01-12T07:19:47.804Z,14.20
2018-01-12T07:22:24.118Z,13.30
2018-01-12T07:24:51.708Z,13.37
2018-01-12T07:27:19.312Z,15.10
2018-01-12T07:29:46.871Z,15.93
2018-01-12T07:32:15.796Z,14.90
2018-01-12T07:34:55.952Z,15.03
2018-01-12T07:37:23.565Z,13.13
2018-01-12T07:39:51.127Z,15.13
2018-01-12T07:42:18.732Z,14.27
2018-01-12T07:44:46.688Z,14.03
2018-01-12T07:47:14.280Z,15.17
2018-01-12T07:49:41.843Z,13.83
2018-01-12T07:52:11.092Z,14.47
2018-01-12T07:54:38.689Z,12.07
2018-01-12T07:57:18.777Z,12.13
2018-01-12T07:59:46.335Z,14.27
2018-01-12T08:05:14.853Z,13.83
2018-01-12T08:07:42.454Z,14.97
2018-01-12T08:10:10.023Z,13.23
2018-01-12T08:12:40.161Z,14.57
2018-01-12T08:15:08.289Z,13.53
2018-01-12T08:17:35.940Z,14.57
2018-01-12T08:20:03.570Z,15.63
2018-01-12T08:22:31.182Z,13.97
2018-01-12T08:24:58.762Z,14.90
2018-01-12T08:27:26.386Z,13.87
2018-01-12T08:29:53.959Z,15.17
2018-01-12T08:32:21.582Z,13.63
2018-01-12T08:34:49.235Z,16.33
2018-01-12T08:37:16.968Z,14.37
2018-01-12T08:39:44.548Z,15.40
2018-01-12T08:42:12.154Z,15.27
2018-01-12T08:44:39.783Z,15.50
2018-01-12T08:47:07.437Z,14.50
2018-01-12T08:49:35.076Z,14.87
2018-01-12T08:52:02.627Z,14.77
2018-01-12T08:54:30.211Z,15.37
2018-01-12T08:56:58.060Z,14.63
2018-01-12T08:59:25.658Z,15.33
2018-01-12T09:01:53.227Z,16.57
2018-01-12T09:04:20.808Z,15.97
2018-01-12T09:06:48.367Z,16.40
2018-01-12T09:09:16.599Z,16.27
2018-01-12T09:11:44.166Z,17.40
2018-01-12T10:00:27.735Z,15.27
2018-01-12T10:02:55.374Z,15.43
2018-01-12T10:05:23.214Z,14.80
2018-01-12T10:08:05.727Z,15.67
2018-01-12T10:10:33.383Z,15.77
2018-01-12T10:13:01.073Z,15.23
2018-01-12T10:15:28.627Z,15.67
2018-01-12T10:17:56.194Z,14.87
2018-01-12T10:20:36.479Z,14.53
2018-01-12T10:23:04.040Z,14.30
2018-01-12T10:25:31.671Z,13.03
2018-01-12T10:27:59.232Z,13.97
2018-01-12T10:36:10.191Z,14.10
2018-01-12T10:38:40.867Z,14.97
2018-01-12T10:41:21.766Z,14.40
2018-01-12T10:43:52.034Z,13.93
2018-01-12T10:51:48.926Z,14.23
2018-01-12T10:54:19.977Z,12.77
2018-01-12T10:56:49.188Z,11.57
2018-01-12T10:59:27.405Z,12.27
2018-01-12T11:01:58.570Z,12.90
2018-01-12T11:04:29.951Z,11.83
2018-01-12T11:07:06.449Z,12.20
2018-01-12T11:09:35.225Z,12.63
2018-01-12T11:12:03.993Z,11.63
2018-01-12T11:14:33.209Z,11.83
2018-01-12T11:17:02.604Z,13.00
2018-01-12T11:19:30.881Z,12.50
2018-01-12T11:21:59.305Z,10.53
2018-01-12T11:24:26.914Z,11.57
2018-01-12T11:26:59.465Z,12.33
2018-01-12T11:29:30.171Z,11.07
2018-01-12T11:31:58.018Z,10.50
2018-01-12T11:34:27.724Z,11.20
2018-01-12T11:36:55.755Z,10.93
2018-01-12T11:39:24.563Z,10.10
2018-01-12T11:41:52.520Z,10.47
2018-01-12T11:44:20.898Z,10.83
2018-01-12T11:46:48.969Z,10.00
2018-01-12T11:49:16.548Z,10.00
2018-01-12T11:51:52.096Z,9.67
2018-01-12T11:54:19.937Z,9.80
2018-01-12T11:56:47.667Z,9.87
2018-01-12T11:59:16.301Z,9.77
2018-01-12T12:01:44.794Z,9.60
2018-01-12T12:04:15.770Z,9.80
2018-01-12T12:06:43.665Z,9.70
2018-01-12T12:09:11.783Z,8.67
2018-01-12T12:11:39.376Z,9.17
2018-01-12T12:14:07.227Z,8.87
2018-01-12T12:16:35.229Z,9.73
2018-01-12T12:19:03.560Z,9.77
2018-01-12T12:21:31.691Z,9.40
2018-01-12T12:24:05.186Z,10.13
2018-01-12T12:26:32.840Z,9.20
2018-01-12T12:29:00.976Z,8.63
2018-01-12T12:31:28.719Z,9.50
2018-01-12T12:33:56.355Z,9.40
2018-01-12T12:36:24.074Z,10.07
2018-01-12T12:38:51.991Z,9.93
2018-01-12T12:41:20.802Z,9.83
2018-01-12T12:43:48.868Z,9.20
2018-01-12T12:46:16.637Z,8.53
2018-01-12T12:48:44.236Z,8.70
2018-01-12T12:51:20.550Z,8.13
2018-01-12T12:53:53.357Z,8.83
2018-01-12T12:56:22.487Z,8.07
2018-01-12T12:58:50.665Z,9.20
2018-01-12T13:01:22.030Z,8.60
2018-01-12T13:03:49.731Z,8.67
2018-01-12T13:06:23.518Z,9.20
2018-01-12T13:08:58.750Z,9.07
2018-01-12T13:11:26.507Z,9.60
2018-01-12T13:13:54.047Z,8.77
2018-01-12T13:16:21.656Z,8.67
2018-01-12T13:18:49.232Z,8.33
2018-01-12T13:21:18.192Z,8.37
2018-01-12T13:23:45.739Z,8.07
2018-01-12T13:26:13.693Z,8.97
2018-01-12T13:28:41.248Z,9.40
2018-01-12T13:31:08.779Z,8.67
2018-01-12T13:33:36.342Z,9.47
2018-01-12T13:36:04.267Z,9.07
2018-01-12T13:38:31.818Z,8.67
2018-01-12T13:40:59.351Z,9.23
2018-01-12T13:43:26.892Z,8.23
2018-01-12T13:45:54.424Z,9.57
2018-01-12T13:48:21.966Z,9.23
2018-01-12T13:50:49.506Z,9.03
2018-01-12T13:53:17.051Z,8.93
2018-01-12T13:55:44.977Z,9.47
2018-01-12T13:58:12.528Z,8.97
2018-01-12T14:00:40.068Z,10.07
2018-01-12T14:03:07.620Z,9.27
2018-01-12T14:05:35.147Z,9.57
2018-01-12T14:08:02.679Z,10.00
2018-01-12T14:10:30.223Z,9.57
2018-01-12T14:12:57.747Z,9.33
2018-01-12T14:15:25.287Z,9.30
2018-01-12T14:17:52.814Z,9.37
2018-01-12T14:20:20.367Z,9.93
2018-01-12T14:22:47.889Z,9.40
2018-01-12T14:25:15.426Z,8.37
2018-01-12T14:27:42.954Z,9.17
2018-01-12T14:30:10.502Z,8.80
2018-01-12T14:32:38.026Z,9.30
2018-01-12T14:35:11.462Z,8.90
2018-01-12T14:37:39.467Z,9.23
2018-01-12T14:40:07.028Z,9.03
2018-01-12T14:42:34.560Z,9.03
2018-01-12T14:45:02.499Z,9.50
2018-01-12T14:47:30.016Z,8.50
2018-01-12T14:49:58.486Z,8.90
2018-01-12T14:52:26.011Z,9.57
2018-01-12T14:54:53.781Z,8.97
2018-01-12T14:57:21.366Z,8.63
2018-01-12T14:59:48.955Z,9.03
2018-01-12T15:02:16.746Z,8.30
2018-01-12T15:04:44.690Z,8.80
2018-01-12T15:07:12.223Z,8.63
2018-01-12T15:09:39.774Z,8.37
2018-01-12T15:12:07.509Z,8.00
2018-01-12T15:14:35.151Z,8.87
2018-01-12T15:17:02.703Z,9.37
2018-01-12T15:19:30.359Z,8.30
2018-01-12T15:21:58.929Z,8.53
2018-01-12T15:24:26.454Z,8.67
2018-01-12T15:26:54.040Z,9.43
2018-01-12T15:29:21.917Z,9.63
2018-01-12T15:31:50.061Z,9.03
2018-01-12T15:34:17.643Z,9.23
2018-01-12T15:36:45.508Z,8.90
2018-01-12T15:39:13.198Z,9.73
2018-01-12T15:41:43.411Z,10.70
2018-01-12T15:44:13.986Z,10.07
2018-01-12T15:46:42.573Z,10.57
2018-01-12T15:49:15.580Z,10.23
2018-01-12T15:51:47.687Z,10.30
2018-01-12T15:54:15.809Z,10.20
2018-01-12T15:56:44.474Z,11.17
2018-01-12T15:59:12.290Z,10.07
2018-01-12T16:01:39.879Z,9.80
2018-01-12T16:04:07.444Z,10.13
2018-01-12T16:06:35.067Z,9.93
2018-01-12T16:09:04.547Z,10.33
2018-01-12T16:11:32.134Z,10.00
2018-01-12T16:13:59.719Z,10.73
2018-01-12T16:16:27.519Z,10.27
2018-01-12T16:18:55.579Z,11.77
2018-01-12T16:21:25.119Z,13.00
2018-01-12T16:23:52.696Z,11.10
2018-01-12T16:26:20.333Z,10.80
2018-01-12T16:28:47.998Z,10.93
2018-01-12T16:31:15.643Z,10.07
2018-01-12T16:33:43.297Z,13.27
2018-01-12T16:36:10.931Z,12.47
2018-01-12T16:38:38.487Z,9.70
2018-01-12T16:41:06.119Z,10.20
2018-01-12T16:43:33.727Z,10.80
2018-01-12T16:46:01.311Z,12.07
2018-01-12T16:48:28.894Z,10.10
2018-01-12T16:50:56.516Z,12.80
2018-01-12T16:53:24.124Z,10.83
2018-01-12T16:55:51.712Z,10.47
2018-01-12T16:58:19.317Z,10.67
2018-01-12T17:00:47.352Z,9.93
2018-01-12T17:03:15.005Z,10.27
2018-01-12T17:05:42.621Z,9.87
2018-01-12T17:08:10.234Z,9.57
2018-01-12T17:10:37.799Z,9.67
2018-01-12T17:13:05.370Z,8.83
2018-01-12T17:15:32.950Z,10.47
2018-01-12T17:18:00.964Z,9.30
2018-01-12T17:20:28.528Z,9.23
2018-01-12T17:22:56.163Z,9.70
2018-01-12T17:25:23.808Z,9.30
2018-01-12T17:27:51.409Z,9.53
2018-01-12T17:30:18.977Z,9.37
2018-01-12T17:32:46.599Z,10.33
2018-01-12T17:35:14.163Z,9.20
2018-01-12T17:37:41.760Z,10.30
2018-01-12T17:40:09.342Z,11.70
2018-01-12T17:42:36.949Z,11.63
2018-01-12T17:45:04.511Z,9.93
2018-01-12T17:47:32.088Z,10.67
2018-01-12T17:49:59.683Z,10.20
2018-01-12T17:52:27.295Z,10.67
2018-01-12T17:54:54.871Z,10.70
2018-01-12T17:57:22.464Z,11.10
2018-01-12T17:59:50.258Z,10.37
2018-01-12T18:02:17.810Z,10.70
2018-01-12T18:04:45.396Z,10.70
2018-01-12T18:07:12.963Z,10.50
2018-01-12T18:09:40.557Z,10.50
2018-01-12T18:12:08.127Z,9.63
2018-01-12T18:14:35.714Z,9.60
2018-01-12T18:17:03.278Z,9.67
2018-01-12T18:19:30.892Z,11.17
2018-01-12T18:21:58.447Z,10.90
2018-01-12T18:24:26.059Z,10.77
2018-01-12T18:26:53.615Z,10.80
2018-01-12T18:29:21.185Z,10.87
2018-01-12T18:31:48.832Z,11.80
2018-01-12T18:34:16.846Z,11.30
2018-01-12T18:36:44.852Z,11.57
2018-01-12T18:39:12.447Z,11.03
2018-01-12T18:41:40.005Z,11.60
2018-01-12T18:44:07.604Z,12.23
2018-01-12T18:46:35.159Z,11.80
2018-01-12T18:49:02.771Z,12.90
2018-01-12T18:51:30.327Z,11.50
2018-01-12T18:53:57.956Z,12.50
2018-01-12T18:56:25.521Z,13.13
2018-01-12T18:58:53.141Z,11.80
2018-01-12T19:01:21.168Z,11.03
2018-01-12T19:03:48.775Z,10.50
2018-01-12T19:06:16.384Z,11.17
2018-01-12T19:08:43.983Z,11.57
2018-01-12T19:11:11.580Z,11.53
2018-01-12T19:13:39.161Z,11.13
2018-01-12T19:16:06.768Z,11.43
2018-01-12T19:18:34.376Z,11.33
2018-01-12T19:21:02.001Z,10.67
2018-01-12T19:23:29.570Z,10.30
2018-01-12T19:25:57.176Z,10.30
2018-01-12T19:28:24.771Z,9.73
2018-01-12T19:30:52.350Z,9.23
2018-01-12T19:33:19.950Z,9.47
2018-01-12T19:35:47.543Z,10.60
2018-01-12T19:38:15.549Z,10.97
2018-01-12T19:40:43.367Z,10.40
2018-01-12T19:43:10.951Z,9.83
2018-01-12T19:45:38.527Z,10.07
2018-01-12T19:48:06.159Z,10.57
2018-01-12T19:50:34.150Z,12.47
2018-01-12T19:53:02.034Z,10.90
2018-01-12T19:55:29.697Z,10.63
2018-01-12T19:57:57.285Z,10.57
2018-01-12T20:00:24.917Z,9.60
2018-01-12T20:02:53.632Z,10.60
2018-01-12T20:05:21.269Z,10.90
2018-01-12T20:07:48.872Z,11.20
2018-01-12T20:10:16.509Z,10.73
2018-01-12T20:12:44.063Z,10.17
2018-01-12T20:15:13.775Z,11.87
2018-01-12T20:17:41.369Z,12.60
2018-01-12T20:20:09.772Z,11.40
2018-01-12T20:22:37.444Z,11.40
2018-01-12T20:25:05.063Z,12.30
2018-01-12T20:27:32.676Z,11.17
2018-01-12T20:30:00.308Z,9.83
2018-01-12T20:32:27.969Z,11.70
2018-01-12T20:34:55.601Z,11.10
2018-01-12T20:37:35.711Z,10.50
2018-01-12T20:40:03.502Z,10.60
2018-01-12T20:42:31.266Z,10.87
2018-01-12T20:44:58.896Z,10.20
2018-01-12T20:47:26.490Z,9.47
2018-01-12T20:49:54.058Z,9.97
2018-01-12T20:52:34.635Z,9.80
2018-01-12T20:55:02.270Z,10.57
2018-01-12T20:57:29.935Z,9.83
2018-01-12T20:59:57.901Z,10.60
2018-01-12T21:02:25.582Z,12.20
2018-01-12T21:04:53.182Z,11.07
2018-01-12T21:07:20.791Z,10.03
2018-01-12T21:09:48.817Z,11.20
2018-01-12T21:12:16.578Z,11.80
2018-01-12T21:14:44.242Z,10.73
2018-01-12T21:17:11.844Z,10.43
2018-01-12T21:19:39.450Z,10.33
2018-01-12T21:22:07.085Z,10.23
2018-01-12T21:24:34.911Z,10.00
2018-01-12T21:27:02.523Z,10.10
2018-01-12T21:29:30.119Z,10.87
2018-01-12T21:31:57.720Z,12.03
2018-01-12T21:34:25.304Z,11.70
2018-01-12T21:36:52.871Z,11.60
2018-01-12T21:39:20.470Z,11.63
2018-01-12T21:41:48.113Z,12.40
2018-01-12T21:44:29.617Z,11.60
2018-01-12T21:46:57.268Z,11.27
2018-01-12T21:49:25.269Z,10.70
2018-01-12T21:51:52.875Z,11.40
2018-01-12T21:54:20.913Z,13.57
2018-01-12T21:56:48.525Z,11.53
2018-01-12T21:59:16.527Z,11.53
2018-01-12T22:01:44.119Z,11.00
2018-01-12T22:04:11.706Z,10.67
2018-01-12T22:06:39.297Z,12.03
2018-01-12T22:09:12.911Z,11.60
2018-01-12T22:11:40.579Z,10.47
2018-01-12T22:14:08.181Z,11.37
2018-01-12T22:16:36.150Z,11.33
2018-01-12T22:19:03.743Z,10.77
2018-01-12T22:21:31.330Z,10.37
2018-01-12T22:23:58.912Z,9.77
2018-01-12T22:26:26.569Z,11.53
2018-01-12T22:28:54.215Z,10.87
2018-01-12T22:31:21.819Z,11.10
2018-01-12T22:33:49.461Z,10.47
2018-01-12T22:36:17.054Z,11.87
2018-01-12T22:38:44.684Z,11.30
2018-01-12T22:41:12.648Z,10.83
2018-01-12T22:43:40.262Z,10.67
2018-01-12T22:46:07.868Z,9.20
2018-01-12T22:48:35.476Z,11.00
2018-01-12T22:51:03.063Z,10.17
2018-01-12T22:53:30.700Z,10.33
2018-01-12T22:55:58.333Z,9.13
2018-01-12T22:58:25.939Z,11.17
2018-01-12T23:00:53.499Z,9.77
2018-01-12T23:03:21.282Z,10.33
2018-01-12T23:05:49.336Z,10.97
2018-01-12T23:08:16.930Z,11.13
2018-01-12T23:10:44.550Z,10.63
2018-01-12T23:13:12.188Z,10.43
2018-01-12T23:15:39.784Z,11.40
2018-01-12T23:18:07.379Z,13.53
2018-01-12T23:20:34.943Z,11.77
2018-01-12T23:23:02.523Z,10.90
2018-01-12T23:25:30.107Z,11.90
2018-01-12T23:27:58.738Z,12.17
2018-01-12T23:30:26.334Z,12.30
2018-01-12T23:32:54.191Z,12.00
2018-01-12T23:35:21.786Z,11.20
2018-01-12T23:37:49.597Z,12.97
2018-01-12T23:40:17.245Z,11.77
2018-01-12T23:42:44.812Z,11.90
2018-01-12T23:45:12.398Z,12.60
2018-01-12T23:47:40.153Z,12.53
2018-01-12T23:50:07.729Z,11.87
2018-01-12T23:52:35.317Z,13.43
2018-01-12T23:55:02.933Z,13.83
2018-01-12T23:57:32.830Z,13.57
